createdAt,value
2018-11-27T00:01:44.888Z,3.50
2018-11-27T00:04:13.318Z,3.60
2018-11-27T00:06:41.615Z,3.60
2018-11-27T00:09:09.914Z,3.50
2018-11-27T00:11:38.687Z,3.40
2018-11-27T00:14:07.363Z,3.50
2018-11-27T00:16:36.282Z,3.50
2018-11-27T00:19:05.151Z,3.70
2018-11-27T00:21:33.358Z,3.70
2018-11-27T00:24:02.338Z,3.80
2018-11-27T00:26:32.806Z,3.60
2018-11-27T00:29:00.914Z,3.50
2018-11-27T00:31:30.147Z,3.30
2018-11-27T00:33:59.539Z,3.30
2018-11-27T00:36:27.641Z,3.20
2018-11-27T00:38:56.499Z,3.30
2018-11-27T00:41:24.686Z,3.30
2018-11-27T00:43:53.525Z,3.30
2018-11-27T00:46:21.737Z,3.20
2018-11-27T00:48:50.462Z,3.20
2018-11-27T00:51:18.641Z,3.10
2018-11-27T00:53:48.118Z,3.00
2018-11-27T00:56:17.766Z,2.90
2018-11-27T00:58:47.249Z,2.90
2018-11-27T01:01:17.048Z,3.00
2018-11-27T01:03:45.872Z,3.10
2018-11-27T01:06:14.593Z,3.10
2018-11-27T01:08:42.789Z,3.00
2018-11-27T01:11:12.157Z,3.00
2018-11-27T01:13:41.278Z,3.00
2018-11-27T01:16:10.981Z,3.00
2018-11-27T01:18:40.743Z,3.10
2018-11-27T01:21:10.137Z,3.20
2018-11-27T01:23:39.043Z,3.20
2018-11-27T01:26:07.422Z,3.30
2018-11-27T01:28:36.205Z,3.30
2018-11-27T01:31:04.779Z,3.40
2018-11-27T01:33:33.709Z,3.40
2018-11-27T01:36:02.362Z,3.40
2018-11-27T01:38:31.569Z,3.30
2018-11-27T01:41:00.254Z,3.40
2018-11-27T01:43:30.732Z,3.30
2018-11-27T01:45:58.829Z,3.30
2018-11-27T01:48:26.920Z,3.40
2018-11-27T01:50:55.017Z,3.40
2018-11-27T01:53:24.270Z,3.30
2018-11-27T01:55:52.662Z,3.20
2018-11-27T01:58:20.750Z,3.10
2018-11-27T02:00:49.407Z,3.00
2018-11-27T02:03:18.139Z,3.10
2018-11-27T02:05:46.830Z,3.10
2018-11-27T02:08:16.193Z,3.10
2018-11-27T02:10:44.465Z,2.90
2018-11-27T02:13:12.543Z,2.90
2018-11-27T02:15:40.986Z,2.90
2018-11-27T02:18:10.855Z,2.90
2018-11-27T02:20:40.435Z,3.00
2018-11-27T02:23:10.343Z,3.00
2018-11-27T02:25:38.503Z,3.10
2018-11-27T02:28:07.583Z,3.20
2018-11-27T02:30:37.103Z,3.30
2018-11-27T02:33:06.205Z,3.20
2018-11-27T02:35:34.530Z,3.20
2018-11-27T02:38:02.992Z,3.20
2018-11-27T02:40:32.913Z,3.30
2018-11-27T02:43:01.654Z,3.30
2018-11-27T02:45:30.926Z,3.30
2018-11-27T02:48:00.430Z,3.20
2018-11-27T02:50:29.830Z,3.20
2018-11-27T02:52:58.973Z,3.30
2018-11-27T02:55:28.051Z,3.30
2018-11-27T02:57:58.120Z,3.20
2018-11-27T03:00:27.434Z,3.20
2018-11-27T03:02:56.621Z,3.30
2018-11-27T03:05:27.504Z,3.30
2018-11-27T03:07:56.272Z,3.20
2018-11-27T03:10:25.930Z,3.20
2018-11-27T03:12:54.013Z,3.20
2018-11-27T03:15:22.155Z,3.20
2018-11-27T03:17:52.767Z,3.20
2018-11-27T03:20:22.879Z,3.10
2018-11-27T03:22:52.525Z,3.10
2018-11-27T03:25:22.608Z,3.00
2018-11-27T03:27:51.958Z,3.00
2018-11-27T03:30:22.450Z,3.00
2018-11-27T03:32:51.406Z,3.00
2018-11-27T03:35:21.360Z,3.10
2018-11-27T03:37:49.967Z,3.10
2018-11-27T03:40:22.772Z,3.20
2018-11-27T03:42:57.460Z,3.10
2018-11-27T03:45:26.030Z,3.10
2018-11-27T03:47:54.444Z,3.20
2018-11-27T03:50:24.595Z,3.30
2018-11-27T03:52:53.431Z,3.30
2018-11-27T03:55:23.809Z,3.20
2018-11-27T03:57:53.536Z,3.30
2018-11-27T04:00:24.771Z,3.40
2018-11-27T04:03:10.652Z,3.30
2018-11-27T04:05:39.127Z,3.30
2018-11-27T04:08:08.404Z,3.20
2018-11-27T04:10:38.286Z,3.10
2018-11-27T04:13:06.360Z,3.20
2018-11-27T04:15:36.165Z,3.10
2018-11-27T04:18:05.399Z,3.20
2018-11-27T04:20:34.530Z,3.30
2018-11-27T04:23:03.356Z,3.40
2018-11-27T04:25:32.301Z,3.40
2018-11-27T04:28:01.614Z,3.40
2018-11-27T04:30:29.697Z,3.50
2018-11-27T04:32:58.254Z,3.50
2018-11-27T04:35:27.101Z,3.60
2018-11-27T04:37:55.622Z,3.50
2018-11-27T04:40:25.498Z,3.50
2018-11-27T04:42:53.669Z,3.50
2018-11-27T04:45:24.541Z,3.50
2018-11-27T04:47:53.240Z,3.50
2018-11-27T04:50:21.512Z,3.50
2018-11-27T04:52:50.878Z,3.40
2018-11-27T04:55:20.544Z,3.30
2018-11-27T04:57:49.639Z,3.20
2018-11-27T05:00:19.738Z,3.20
2018-11-27T05:02:47.934Z,3.20
2018-11-27T05:05:17.394Z,3.10
2018-11-27T05:07:46.119Z,3.10
2018-11-27T05:10:18.187Z,3.00
2018-11-27T05:12:46.421Z,3.00
2018-11-27T05:15:18.395Z,2.90
2018-11-27T05:17:48.608Z,2.90
2018-11-27T05:20:17.816Z,2.90
2018-11-27T05:22:46.094Z,2.80
2018-11-27T05:25:15.314Z,2.80
2018-11-27T05:27:47.411Z,2.80
2018-11-27T05:30:17.455Z,2.70
2018-11-27T05:32:46.261Z,2.80
2018-11-27T05:35:21.358Z,2.90
2018-11-27T05:37:50.808Z,2.80
2018-11-27T05:40:21.878Z,2.80
2018-11-27T05:42:52.157Z,2.80
2018-11-27T05:45:21.225Z,2.80
2018-11-27T05:47:49.369Z,2.80
2018-11-27T05:50:20.976Z,2.70
2018-11-27T05:52:50.258Z,2.70
2018-11-27T05:55:18.587Z,2.80
2018-11-27T05:57:48.221Z,2.80
2018-11-27T06:00:19.261Z,2.80
2018-11-27T06:02:49.330Z,2.80
2018-11-27T06:05:21.993Z,2.80
2018-11-27T06:07:51.118Z,2.60
2018-11-27T06:10:21.207Z,2.50
2018-11-27T06:12:49.756Z,2.50
2018-11-27T06:15:20.859Z,2.50
2018-11-27T06:17:50.327Z,2.60
2018-11-27T06:20:21.466Z,2.70
2018-11-27T06:22:51.166Z,2.70
2018-11-27T06:25:20.946Z,2.90
2018-11-27T06:27:52.191Z,2.70
2018-11-27T06:30:23.341Z,2.70
2018-11-27T06:32:54.181Z,2.70
2018-11-27T06:38:02.985Z,2.90
2018-11-27T06:40:32.058Z,3.00
2018-11-27T06:43:02.042Z,2.90
2018-11-27T06:45:30.847Z,2.60
2018-11-27T06:48:00.098Z,2.50
2018-11-27T06:50:31.218Z,2.30
2018-11-27T06:53:00.568Z,2.20
2018-11-27T06:55:28.857Z,2.20
2018-11-27T06:57:57.136Z,2.00
2018-11-27T07:00:26.399Z,1.80
2018-11-27T07:02:56.029Z,1.90
2018-11-27T07:05:30.080Z,2.00
2018-11-27T07:07:59.582Z,2.20
2018-11-27T07:10:32.934Z,2.20
2018-11-27T07:13:07.543Z,2.20
2018-11-27T07:15:35.808Z,2.30
2018-11-27T07:18:05.852Z,2.30
2018-11-27T07:20:45.910Z,2.30
2018-11-27T07:23:15.073Z,2.40
2018-11-27T07:25:44.238Z,2.50
2018-11-27T07:28:13.990Z,2.60
2018-11-27T07:30:43.146Z,2.40
2018-11-27T07:33:11.222Z,2.50
2018-11-27T07:38:19.157Z,2.40
2018-11-27T07:40:48.080Z,2.50
2018-11-27T07:43:18.162Z,2.50
2018-11-27T07:45:49.200Z,2.60
2018-11-27T07:48:17.908Z,2.70
2018-11-27T07:50:47.431Z,2.70
2018-11-27T07:53:21.482Z,2.80
2018-11-27T07:55:49.880Z,2.60
2018-11-27T07:58:18.853Z,2.70
2018-11-27T08:00:47.014Z,2.70
2018-11-27T08:03:15.606Z,2.40
2018-11-27T08:05:53.123Z,2.30
2018-11-27T08:08:22.003Z,2.10
2018-11-27T08:10:51.764Z,2.00
2018-11-27T08:13:21.329Z,2.10
2018-11-27T08:15:50.843Z,2.30
2018-11-27T08:18:19.117Z,2.50
2018-11-27T08:23:29.824Z,2.70
2018-11-27T08:25:58.874Z,2.60
2018-11-27T08:28:27.267Z,2.70
2018-11-27T08:30:55.832Z,2.80
2018-11-27T08:33:23.903Z,2.90
2018-11-27T08:36:05.799Z,2.90
2018-11-27T08:38:34.732Z,2.80
2018-11-27T08:41:03.700Z,2.60
2018-11-27T08:43:34.059Z,2.50
2018-11-27T08:46:02.231Z,2.50
2018-11-27T08:48:32.953Z,2.70
2018-11-27T08:51:08.556Z,2.60
2018-11-27T08:53:38.047Z,2.50
2018-11-27T08:56:10.075Z,2.50
2018-11-27T08:58:39.732Z,2.40
2018-11-27T09:01:09.239Z,2.30
2018-11-27T09:03:37.724Z,2.20
2018-11-27T09:06:13.907Z,2.30
2018-11-27T09:08:44.061Z,2.40
2018-11-27T09:11:13.297Z,2.50
2018-11-27T09:13:42.774Z,2.50
2018-11-27T09:16:12.278Z,2.50
2018-11-27T09:18:41.251Z,2.60
2018-11-27T09:21:16.449Z,2.70
2018-11-27T09:23:45.350Z,2.80
2018-11-27T09:26:14.513Z,2.80
2018-11-27T09:28:44.550Z,2.90
2018-11-27T09:31:13.372Z,2.90
2018-11-27T09:33:41.847Z,3.00
2018-11-27T09:36:13.783Z,3.10
2018-11-27T09:38:46.903Z,3.30
2018-11-27T09:41:16.788Z,3.40
2018-11-27T09:43:47.851Z,3.30
2018-11-27T09:46:17.368Z,3.40
2018-11-27T09:48:47.189Z,3.50
2018-11-27T09:51:15.406Z,3.40
2018-11-27T09:53:43.573Z,3.60
2018-11-27T09:56:14.870Z,3.60
2018-11-27T09:58:45.166Z,3.60
2018-11-27T10:01:14.730Z,3.40
2018-11-27T10:03:45.398Z,3.30
2018-11-27T10:06:25.051Z,3.00
2018-11-27T10:08:55.169Z,3.00
2018-11-27T10:11:25.121Z,3.10
2018-11-27T10:13:55.033Z,3.20
2018-11-27T10:16:24.846Z,3.00
2018-11-27T10:18:54.613Z,2.90
2018-11-27T10:21:29.883Z,2.80
2018-11-27T10:23:58.667Z,2.80
2018-11-27T10:26:27.123Z,3.00
2018-11-27T10:29:02.899Z,3.10
2018-11-27T10:31:31.789Z,3.30
2018-11-27T10:34:02.112Z,3.20
2018-11-27T10:36:30.476Z,3.30
2018-11-27T10:39:03.271Z,3.30
2018-11-27T10:41:31.444Z,3.50
2018-11-27T10:44:03.266Z,3.50
2018-11-27T10:46:32.238Z,3.50
2018-11-27T10:49:00.717Z,3.50
2018-11-27T10:51:36.834Z,3.30
2018-11-27T10:54:06.253Z,3.20
2018-11-27T10:56:37.177Z,3.00
2018-11-27T10:59:05.972Z,3.10
2018-11-27T11:01:39.856Z,3.10
2018-11-27T11:04:10.092Z,3.20
2018-11-27T11:06:39.664Z,3.30
2018-11-27T11:09:14.079Z,3.50
2018-11-27T11:11:42.988Z,3.50
2018-11-27T11:14:12.444Z,3.50
2018-11-27T11:16:42.295Z,3.20
2018-11-27T11:19:11.639Z,3.00
2018-11-27T11:21:43.353Z,2.90
2018-11-27T11:24:12.655Z,2.90
2018-11-27T11:26:42.467Z,2.80
2018-11-27T11:29:12.148Z,2.70
2018-11-27T11:31:42.513Z,2.80
2018-11-27T11:34:11.955Z,2.80
2018-11-27T11:36:41.045Z,3.10
2018-11-27T11:39:13.220Z,3.30
2018-11-27T11:41:42.776Z,3.60
2018-11-27T11:44:12.240Z,3.80
2018-11-27T11:46:41.566Z,3.60
2018-11-27T11:49:13.582Z,3.30
2018-11-27T11:51:49.303Z,3.20
2018-11-27T11:54:18.532Z,3.10
2018-11-27T11:56:52.751Z,2.80
2018-11-27T11:59:28.639Z,2.90
2018-11-27T12:01:53.427Z,2.80
2018-11-27T12:04:23.799Z,3.00
2018-11-27T12:06:56.586Z,3.20
2018-11-27T12:09:26.307Z,3.30
2018-11-27T12:11:55.254Z,3.60
2018-11-27T12:14:25.090Z,3.40
2018-11-27T12:16:54.338Z,3.20
2018-11-27T12:19:25.152Z,3.10
2018-11-27T12:21:54.600Z,2.90
2018-11-27T12:24:27.053Z,2.90
2018-11-27T12:26:58.719Z,3.00
2018-11-27T12:29:27.856Z,2.90
2018-11-27T12:31:59.571Z,2.90
2018-11-27T12:34:29.865Z,2.80
2018-11-27T12:37:00.003Z,2.80
2018-11-27T12:39:30.888Z,2.60
2018-11-27T12:41:59.650Z,2.60
2018-11-27T12:44:29.042Z,2.70
2018-11-27T12:46:57.594Z,2.90
2018-11-27T12:49:29.972Z,2.80
2018-11-27T12:52:00.945Z,2.90
2018-11-27T12:54:29.274Z,3.00
2018-11-27T12:57:04.987Z,2.90
2018-11-27T12:59:36.448Z,3.00
2018-11-27T13:02:05.727Z,2.80
2018-11-27T13:04:45.452Z,2.60
2018-11-27T13:07:14.562Z,2.40
2018-11-27T13:09:43.922Z,2.30
2018-11-27T13:12:14.268Z,2.30
2018-11-27T13:14:44.179Z,2.30
2018-11-27T13:17:14.686Z,2.30
2018-11-27T13:19:45.594Z,2.30
2018-11-27T13:22:15.976Z,2.30
2018-11-27T13:24:47.052Z,2.40
2018-11-27T13:27:17.500Z,2.30
2018-11-27T13:29:46.895Z,2.20
2018-11-27T13:32:21.005Z,2.10
2018-11-27T13:34:52.649Z,2.10
2018-11-27T13:37:21.166Z,2.30
2018-11-27T13:39:50.660Z,2.30
2018-11-27T13:42:20.820Z,2.20
2018-11-27T13:44:50.355Z,2.00
2018-11-27T13:47:20.060Z,2.00
2018-11-27T13:49:49.517Z,2.00
2018-11-27T13:52:18.428Z,1.80
2018-11-27T13:54:47.266Z,1.60
2018-11-27T13:57:19.871Z,1.70
2018-11-27T13:59:50.915Z,1.80
2018-11-27T14:02:20.842Z,1.80
2018-11-27T14:04:52.454Z,1.80
2018-11-27T14:07:21.575Z,1.80
2018-11-27T14:09:53.046Z,2.00
2018-11-27T14:12:23.503Z,1.90
2018-11-27T14:17:52.727Z,2.00
2018-11-27T14:20:24.246Z,1.90
2018-11-27T14:22:53.485Z,1.70
2018-11-27T14:25:24.258Z,1.70
2018-11-27T14:27:53.457Z,1.40
2018-11-27T14:30:23.830Z,1.30
2018-11-27T14:32:52.489Z,1.20
2018-11-27T14:35:24.030Z,1.20
2018-11-27T14:37:54.713Z,1.10
2018-11-27T14:40:27.176Z,1.10
2018-11-27T14:42:56.363Z,1.20
2018-11-27T14:45:26.028Z,1.10
2018-11-27T14:47:58.379Z,1.10
2018-11-27T14:50:28.859Z,1.10
2018-11-27T14:52:58.042Z,1.10
2018-11-27T14:55:28.519Z,1.10
2018-11-27T14:57:57.848Z,1.20
2018-11-27T15:00:27.110Z,1.20
2018-11-27T15:02:56.668Z,1.20
2018-11-27T15:05:31.465Z,1.10
2018-11-27T15:08:00.696Z,1.10
2018-11-27T15:10:29.571Z,1.00
2018-11-27T15:13:03.852Z,1.00
2018-11-27T15:15:33.718Z,1.00
2018-11-27T15:18:04.096Z,1.00
2018-11-27T15:20:33.546Z,1.00
2018-11-27T15:23:02.139Z,1.10
2018-11-27T15:25:30.986Z,1.00
2018-11-27T15:28:01.885Z,1.10
2018-11-27T15:30:33.813Z,1.10
2018-11-27T15:33:02.856Z,1.00
2018-11-27T15:35:31.863Z,1.20
2018-11-27T15:38:07.215Z,1.30
2018-11-27T15:40:38.816Z,1.10
2018-11-27T15:43:11.578Z,1.10
2018-11-27T15:45:40.774Z,1.00
2018-11-27T15:48:10.790Z,1.00
2018-11-27T15:50:40.302Z,1.00
2018-11-27T15:53:09.331Z,0.90
2018-11-27T15:55:41.349Z,0.90
2018-11-27T15:58:13.214Z,0.70
2018-11-27T16:00:42.971Z,0.70
2018-11-27T16:03:13.507Z,0.70
2018-11-27T16:05:46.238Z,0.70
2018-11-27T16:08:15.023Z,0.90
2018-11-27T16:10:43.732Z,0.80
2018-11-27T16:13:17.020Z,0.80
2018-11-27T16:15:49.292Z,0.80
2018-11-27T16:18:18.575Z,0.80
2018-11-27T16:20:48.467Z,0.80
2018-11-27T16:23:17.283Z,0.80
2018-11-27T16:25:47.521Z,0.70
2018-11-27T16:28:17.623Z,0.70
2018-11-27T16:30:48.529Z,0.70
2018-11-27T16:33:19.610Z,0.60
2018-11-27T16:35:50.945Z,0.60
2018-11-27T16:38:20.681Z,0.50
2018-11-27T16:40:52.274Z,0.50
2018-11-27T16:43:21.963Z,0.60
2018-11-27T16:45:51.227Z,0.60
2018-11-27T16:48:20.519Z,0.60
2018-11-27T16:50:51.695Z,0.60
2018-11-27T16:53:21.577Z,0.50
2018-11-27T16:55:50.613Z,0.50
2018-11-27T16:58:23.357Z,0.50
2018-11-27T17:00:53.570Z,0.50
2018-11-27T17:03:22.816Z,0.60
2018-11-27T17:05:52.586Z,0.50
2018-11-27T17:08:20.823Z,0.60
2018-11-27T17:10:51.310Z,0.50
2018-11-27T17:13:20.506Z,0.60
2018-11-27T17:15:52.797Z,0.50
2018-11-27T17:18:27.481Z,0.50
2018-11-27T17:20:57.033Z,0.40
2018-11-27T17:23:26.453Z,0.50
2018-11-27T17:25:55.297Z,0.40
2018-11-27T17:28:28.470Z,0.40
2018-11-27T17:31:04.117Z,0.40
2018-11-27T17:33:37.559Z,0.40
2018-11-27T17:36:08.488Z,0.30
2018-11-27T17:38:41.950Z,0.30
2018-11-27T17:41:12.592Z,0.30
2018-11-27T17:43:42.076Z,0.30
2018-11-27T17:46:11.491Z,0.20
2018-11-27T17:48:47.284Z,0.20
2018-11-27T17:51:17.155Z,0.20
2018-11-27T17:53:49.429Z,0.20
2018-11-27T17:56:18.260Z,0.20
2018-11-27T17:58:53.558Z,0.20
2018-11-27T18:01:23.167Z,0.10
2018-11-27T18:03:53.797Z,0.00
2018-11-27T18:06:24.299Z,0.00
2018-11-27T18:08:54.399Z,0.10
2018-11-27T18:11:23.304Z,0.20
2018-11-27T18:13:53.684Z,0.10
2018-11-27T18:16:22.993Z,0.20
2018-11-27T18:21:35.851Z,0.10
2018-11-27T18:24:13.081Z,0.10
2018-11-27T18:26:45.144Z,0.10
2018-11-27T18:29:18.089Z,0.10
2018-11-27T18:31:52.066Z,0.10
2018-11-27T18:34:28.441Z,0.00
2018-11-27T18:36:56.716Z,0.10
2018-11-27T18:39:25.452Z,0.10
2018-11-27T18:41:55.489Z,0.00
2018-11-27T18:44:25.876Z,0.10
2018-11-27T18:47:02.429Z,0.10
2018-11-27T18:49:36.491Z,0.00
2018-11-27T18:52:12.615Z,-0.10
2018-11-27T18:54:45.709Z,-0.10
2018-11-27T18:57:14.211Z,-0.10
2018-11-27T18:59:45.429Z,-0.10
2018-11-27T19:02:20.585Z,-0.20
2018-11-27T19:04:49.918Z,-0.20
2018-11-27T19:07:24.288Z,-0.20
2018-11-27T19:09:59.045Z,-0.20
2018-11-27T19:12:37.575Z,-0.30
2018-11-27T19:15:11.278Z,-0.30
2018-11-27T19:17:41.841Z,-0.40
2018-11-27T19:20:12.067Z,-0.30
2018-11-27T19:22:44.514Z,-0.30
2018-11-27T19:25:21.365Z,-0.20
2018-11-27T19:28:07.454Z,-0.20
2018-11-27T19:30:48.237Z,-0.20
2018-11-27T19:35:57.326Z,-0.20
2018-11-27T19:38:27.416Z,-0.20
2018-11-27T19:40:58.243Z,-0.20
2018-11-27T19:43:30.831Z,-0.10
2018-11-27T19:46:09.291Z,-0.30
2018-11-27T19:48:44.632Z,-0.50
2018-11-27T19:51:19.534Z,-0.50
2018-11-27T19:53:54.835Z,-0.50
2018-11-27T19:56:31.830Z,-0.60
2018-11-27T19:59:09.121Z,-0.60
2018-11-27T20:01:38.359Z,-0.50
2018-11-27T20:04:14.069Z,-0.60
2018-11-27T20:06:49.045Z,-0.60
2018-11-27T20:09:28.206Z,-0.70
2018-11-27T20:12:15.344Z,-0.60
2018-11-27T20:14:47.111Z,-0.60
2018-11-27T20:17:22.290Z,-0.70
2018-11-27T20:19:51.615Z,-0.80
2018-11-27T20:22:23.919Z,-0.80
2018-11-27T20:24:53.732Z,-0.80
2018-11-27T20:27:27.634Z,-0.70
2018-11-27T20:30:01.191Z,-0.70
2018-11-27T20:32:34.012Z,-0.70
2018-11-27T20:35:11.576Z,-0.70
2018-11-27T20:37:45.311Z,-0.80
2018-11-27T20:40:18.948Z,-0.90
2018-11-27T20:42:56.631Z,-0.90
2018-11-27T20:45:34.178Z,-0.90
2018-11-27T20:48:17.303Z,-0.90
2018-11-27T20:50:52.883Z,-1.00
2018-11-27T20:53:34.417Z,-0.90
2018-11-27T20:56:11.110Z,-0.90
2018-11-27T20:58:42.253Z,-0.90
2018-11-27T21:03:51.327Z,-1.00
2018-11-27T21:06:24.525Z,-1.10
2018-11-27T21:08:53.350Z,-1.00
2018-11-27T21:11:24.761Z,-0.90
2018-11-27T21:14:00.452Z,-0.90
2018-11-27T21:16:31.744Z,-0.90
2018-11-27T21:19:01.153Z,-0.90
2018-11-27T21:21:30.534Z,-0.90
2018-11-27T21:24:00.727Z,-0.90
2018-11-27T21:26:30.352Z,-0.90
2018-11-27T21:29:00.336Z,-1.00
2018-11-27T21:31:30.773Z,-1.00
2018-11-27T21:34:00.669Z,-1.00
2018-11-27T21:36:37.385Z,-1.10
2018-11-27T21:39:14.920Z,-1.20
2018-11-27T21:41:55.193Z,-1.10
2018-11-27T21:44:26.631Z,-1.10
2018-11-27T21:46:58.747Z,-1.10
2018-11-27T21:49:26.973Z,-1.20
2018-11-27T21:51:59.317Z,-1.20
2018-11-27T21:54:28.632Z,-1.30
2018-11-27T21:57:01.429Z,-1.30
2018-11-27T21:59:30.078Z,-1.40
2018-11-27T22:02:00.399Z,-1.40
2018-11-27T22:04:29.446Z,-1.40
2018-11-27T22:06:59.033Z,-1.30
2018-11-27T22:09:28.676Z,-1.40
2018-11-27T22:11:57.111Z,-1.30
2018-11-27T22:14:26.831Z,-1.40
2018-11-27T22:16:57.491Z,-1.30
2018-11-27T22:19:26.350Z,-1.40
2018-11-27T22:21:56.411Z,-1.40
2018-11-27T22:24:26.853Z,-1.40
2018-11-27T22:26:55.822Z,-1.50
2018-11-27T22:29:24.956Z,-1.40
2018-11-27T22:31:53.967Z,-1.40
2018-11-27T22:34:24.294Z,-1.40
2018-11-27T22:36:52.742Z,-1.40
2018-11-27T22:39:20.977Z,-1.40
2018-11-27T22:41:50.131Z,-1.50
2018-11-27T22:44:18.528Z,-1.40
2018-11-27T22:46:48.686Z,-1.40
2018-11-27T22:49:17.740Z,-1.50
2018-11-27T22:51:46.151Z,-1.40
2018-11-27T22:54:15.569Z,-1.40
2018-11-27T22:56:46.137Z,-1.40
2018-11-27T22:59:14.271Z,-1.40
2018-11-27T23:01:42.640Z,-1.50
2018-11-27T23:04:12.147Z,-1.40
2018-11-27T23:06:41.838Z,-1.40
2018-11-27T23:09:10.385Z,-1.50
2018-11-27T23:11:40.522Z,-1.60
2018-11-27T23:14:09.446Z,-1.60
2018-11-27T23:16:37.581Z,-1.60
2018-11-27T23:19:06.800Z,-1.50
2018-11-27T23:21:37.403Z,-1.60
2018-11-27T23:24:11.635Z,-1.60
2018-11-27T23:26:39.663Z,-1.50
2018-11-27T23:29:10.702Z,-1.50
2018-11-27T23:31:40.661Z,-1.60
2018-11-27T23:34:10.120Z,-1.50
2018-11-27T23:36:40.204Z,-1.50
2018-11-27T23:39:09.339Z,-1.50
2018-11-27T23:41:37.534Z,-1.50
2018-11-27T23:44:05.841Z,-1.70
2018-11-27T23:46:35.529Z,-1.80
2018-11-27T23:49:04.467Z,-1.80
2018-11-27T23:51:33.073Z,-1.90
2018-11-27T23:54:04.061Z,-1.90
2018-11-27T23:56:32.837Z,-1.80
2018-11-27T23:59:02.594Z,-1.80
